Time;durP1;ratioP1;P1;durP2;ratioP2;P2;SDS_P1;SDS_P2;PMS_P1;PMS_P2;Temp;Humidity;BMP_temperature;BMP_pressure;BME280_temperature;BME280_humidity;BME280_pressure;Samples;Min_cycle;Max_cycle;Signal;HPM_P1;HPM_P2
2023/12/28 00:02:20;;;;;;;5.38;3.53;;;;;;;9.07;100.00;100720.94;5105380;27;20104;-75
2023/12/28 00:04:46;;;;;;;6.20;3.58;;;;;;;8.96;100.00;100714.56;5100302;27;20029;-76
2023/12/28 00:07:12;;;;;;;8.55;3.60;;;;;;;8.95;100.00;100724.34;5110253;27;20136;-74
2023/12/28 00:09:37;;;;;;;5.30;3.20;;;;;;;8.92;100.00;100727.16;5103004;27;20028;-75
2023/12/28 00:12:03;;;;;;;5.35;3.60;;;;;;;8.97;100.00;100733.06;5108926;27;20044;-75
2023/12/28 00:14:29;;;;;;;9.63;3.88;;;;;;;8.94;100.00;100732.44;5082958;28;20032;-74
2023/12/28 00:16:54;;;;;;;5.97;3.78;;;;;;;9.14;100.00;100734.78;5093367;28;20036;-74
2023/12/28 00:19:20;;;;;;;6.60;3.70;;;;;;;9.04;100.00;100749.56;5105316;28;20043;-74
2023/12/28 00:21:46;;;;;;;5.47;3.47;;;;;;;9.21;100.00;100754.72;5112749;27;20036;-75
2023/12/28 00:24:12;;;;;;;5.78;3.28;;;;;;;9.20;100.00;100762.81;5114101;27;20036;-75
2023/12/28 00:26:37;;;;;;;9.40;3.47;;;;;;;9.30;100.00;100764.84;5107126;27;20043;-75
2023/12/28 00:29:04;;;;;;;7.18;4.13;;;;;;;9.17;100.00;100769.16;5105139;27;20046;-74
2023/12/28 00:31:30;;;;;;;7.72;3.67;;;;;;;9.18;100.00;100765.53;5098508;27;20093;-75
2023/12/28 00:33:55;;;;;;;7.82;4.50;;;;;;;9.19;100.00;100771.75;5072268;28;20385;-75
2023/12/28 00:36:20;;;;;;;7.72;3.80;;;;;;;9.27;100.00;100774.78;5093615;27;20609;-75
2023/12/28 00:38:46;;;;;;;4.53;3.30;;;;;;;9.27;100.00;100772.97;5067552;27;20082;-75
2023/12/28 00:41:12;;;;;;;5.63;3.38;;;;;;;9.27;100.00;100769.47;5074277;27;20036;-75
2023/12/28 00:43:37;;;;;;;5.22;3.90;;;;;;;9.23;100.00;100775.91;5102884;27;20539;-75
2023/12/28 00:46:03;;;;;;;5.82;3.83;;;;;;;9.24;100.00;100782.97;5082047;27;20054;-75
2023/12/28 00:48:28;;;;;;;7.00;4.20;;;;;;;9.16;100.00;100786.06;5100245;27;20055;-75
2023/12/28 00:50:55;;;;;;;5.15;4.10;;;;;;;9.32;100.00;100786.88;5099863;27;20032;-75
2023/12/28 00:53:20;;;;;;;7.88;3.72;;;;;;;9.24;100.00;100791.81;5099067;27;20028;-74
2023/12/28 00:55:46;;;;;;;10.05;4.28;;;;;;;9.19;100.00;100785.06;5105201;27;20679;-75
2023/12/28 00:58:11;;;;;;;10.43;4.25;;;;;;;8.96;100.00;100792.53;5082296;27;20745;-75
2023/12/28 01:00:37;;;;;;;10.55;4.35;;;;;;;9.14;100.00;100795.09;5100156;27;20111;-75
2023/12/28 01:03:03;;;;;;;4.70;4.18;;;;;;;9.13;100.00;100793.38;5099434;27;20036;-75
2023/12/28 01:05:29;;;;;;;8.95;4.07;;;;;;;9.18;100.00;100802.78;5098665;27;20036;-74
2023/12/28 01:07:55;;;;;;;5.60;3.95;;;;;;;9.19;100.00;100803.66;5088841;27;20074;-74
2023/12/28 01:10:21;;;;;;;7.20;3.47;;;;;;;9.18;100.00;100786.81;5094255;27;20043;-73
2023/12/28 01:12:46;;;;;;;5.82;4.00;;;;;;;9.21;100.00;100810.59;5101260;27;20024;-74
2023/12/28 01:15:12;;;;;;;6.28;4.03;;;;;;;9.26;100.00;100816.50;5100345;27;20028;-73
2023/12/28 01:17:37;;;;;;;5.28;4.22;;;;;;;9.33;100.00;100825.84;5100201;27;20044;-74
2023/12/28 01:20:04;;;;;;;8.43;4.50;;;;;;;9.37;100.00;100821.19;5098042;27;20040;-73
2023/12/28 01:22:30;;;;;;;8.00;4.38;;;;;;;9.40;100.00;100831.69;5089829;27;20339;-73
2023/12/28 01:24:55;;;;;;;8.88;4.80;;;;;;;9.27;100.00;100828.84;5104422;27;20396;-73
2023/12/28 01:27:21;;;;;;;13.50;4.63;;;;;;;9.32;100.00;100823.28;5079549;28;20028;-73
2023/12/28 01:29:46;;;;;;;7.10;4.25;;;;;;;9.38;100.00;100820.25;5073742;28;20040;-73
2023/12/28 01:32:12;;;;;;;12.07;4.55;;;;;;;9.35;100.00;100828.44;5097194;27;20083;-74
2023/12/28 01:34:37;;;;;;;8.82;4.55;;;;;;;9.52;100.00;100830.09;5081727;28;20036;-74
2023/12/28 01:37:03;;;;;;;8.27;4.30;;;;;;;9.36;100.00;100826.63;5089332;27;20031;-73
2023/12/28 01:39:28;;;;;;;6.95;4.53;;;;;;;9.41;100.00;100821.88;5105908;27;20055;-74
2023/12/28 01:41:54;;;;;;;6.43;4.40;;;;;;;9.50;100.00;100839.97;5097143;27;20032;-74
2023/12/28 01:44:19;;;;;;;9.68;4.53;;;;;;;9.43;100.00;100852.78;5081537;27;20898;-73
2023/12/28 01:46:46;;;;;;;6.95;5.13;;;;;;;9.38;100.00;100851.31;5095131;27;20775;-74
2023/12/28 01:49:12;;;;;;;7.68;4.32;;;;;;;9.43;100.00;100855.44;5095919;27;20055;-73
2023/12/28 01:51:38;;;;;;;6.68;4.43;;;;;;;9.43;100.00;100852.78;5095073;27;20859;-73
2023/12/28 01:54:03;;;;;;;11.02;5.47;;;;;;;9.40;100.00;100852.97;5082120;27;20043;-73
2023/12/28 01:56:29;;;;;;;7.68;4.60;;;;;;;9.32;100.00;100857.88;5083922;27;20035;-74
2023/12/28 01:58:55;;;;;;;7.13;4.20;;;;;;;9.32;100.00;100857.88;5098796;27;20040;-73
2023/12/28 02:01:21;;;;;;;5.22;4.20;;;;;;;9.44;100.00;100861.59;5077622;27;20063;-73
2023/12/28 02:03:48;;;;;;;7.47;4.68;;;;;;;9.50;100.00;100866.59;5079138;28;20032;-74
2023/12/28 02:06:16;;;;;;;7.80;4.47;;;;;;;9.58;100.00;100856.34;5099450;27;20059;-74
2023/12/28 02:08:42;;;;;;;11.70;5.07;;;;;;;9.43;100.00;100852.78;5095912;27;20120;-76
2023/12/28 02:11:08;;;;;;;10.75;4.97;;;;;;;9.36;100.00;100848.75;5091580;27;20129;-72
2023/12/28 02:13:35;;;;;;;9.30;5.15;;;;;;;9.43;100.00;100854.56;5084225;27;20059;-75
2023/12/28 02:16:14;;;;;;;9.82;4.80;;;;;;;9.43;100.00;100854.56;5084561;27;20039;-73
2023/12/28 02:18:44;;;;;;;9.43;4.80;;;;;;;9.38;100.00;100851.31;5088941;27;20063;-73
2023/12/28 02:21:12;;;;;;;9.98;4.80;;;;;;;9.31;100.00;100851.69;5089723;27;20123;-76
2023/12/28 02:23:38;;;;;;;6.82;5.22;;;;;;;9.37;100.00;100850.47;5077262;27;20179;-73
2023/12/28 02:26:03;;;;;;;8.90;4.50;;;;;;;9.31;100.00;100859.66;5099435;27;20032;-73
2023/12/28 02:28:29;;;;;;;10.35;5.00;;;;;;;9.34;100.00;100861.31;5099922;27;20039;-72
2023/12/28 02:30:55;;;;;;;9.10;5.55;;;;;;;9.28;100.00;100861.66;5088734;27;20036;-73
2023/12/28 02:33:35;;;;;;;8.90;4.57;;;;;;;9.28;100.00;100857.19;5081910;27;20046;-73
2023/12/28 02:36:05;;;;;;;8.23;4.88;;;;;;;9.26;100.00;100852.91;5093637;27;20206;-73
2023/12/28 02:38:33;;;;;;;7.68;4.82;;;;;;;9.30;100.00;100852.66;5101220;27;20953;-73
2023/12/28 02:40:59;;;;;;;11.98;5.40;;;;;;;9.30;100.00;100849.13;5102380;27;20253;-73
2023/12/28 02:43:25;;;;;;;13.75;5.25;;;;;;;9.20;100.00;100851.47;5091735;27;20043;-74
2023/12/28 02:45:50;;;;;;;9.40;4.95;;;;;;;9.27;100.00;100838.66;5101911;27;20036;-73
2023/12/28 02:48:16;;;;;;;13.63;5.13;;;;;;;9.28;100.00;100848.34;5091177;27;20035;-73
2023/12/28 02:50:41;;;;;;;10.43;4.30;;;;;;;9.19;100.00;100833.78;5096298;27;20036;-73
2023/12/28 02:53:07;;;;;;;13.05;5.45;;;;;;;9.34;100.00;100840.03;5088092;27;20085;-73
2023/12/28 02:55:34;;;;;;;8.50;4.22;;;;;;;9.26;100.00;100831.63;5097597;27;20032;-73
2023/12/28 02:57:59;;;;;;;10.18;5.20;;;;;;;9.32;100.00;100841.91;5082427;27;20043;-73
2023/12/28 03:00:25;;;;;;;14.13;4.57;;;;;;;9.25;100.00;100837.91;5068803;27;20039;-74
2023/12/28 03:02:51;;;;;;;10.35;4.40;;;;;;;9.23;100.00;100840.63;5090004;28;20161;-73
2023/12/28 03:05:17;;;;;;;10.93;4.32;;;;;;;9.29;100.00;100837.63;5090182;27;20748;-73
2023/12/28 03:07:42;;;;;;;16.13;4.88;;;;;;;9.21;100.00;100829.22;5095164;27;20046;-74
2023/12/28 03:10:09;;;;;;;11.60;4.30;;;;;;;9.20;100.00;100842.63;5094421;27;20788;-74
2023/12/28 03:12:35;;;;;;;6.97;4.07;;;;;;;9.28;100.00;100837.69;5090563;27;20027;-74
2023/12/28 03:15:00;;;;;;;9.50;4.32;;;;;;;9.18;100.00;100845.34;5071041;28;20714;-73
2023/12/28 03:17:26;;;;;;;9.25;4.95;;;;;;;9.26;100.00;100836.94;5077609;28;20063;-73
2023/12/28 03:19:52;;;;;;;11.25;4.07;;;;;;;9.24;100.00;100826.41;5089529;28;20044;-73
2023/12/28 03:22:17;;;;;;;9.25;4.38;;;;;;;9.16;100.00;100814.47;5093974;27;20047;-73
2023/12/28 03:24:44;;;;;;;13.07;4.25;;;;;;;9.09;100.00;100808.66;5096103;27;20089;-74
2023/12/28 03:27:10;;;;;;;8.95;3.92;;;;;;;9.17;100.00;100816.19;5097071;27;20036;-74
2023/12/28 03:29:36;;;;;;;10.50;4.40;;;;;;;9.10;100.00;100817.50;5082802;27;20032;-74
2023/12/28 03:32:02;;;;;;;12.40;3.83;;;;;;;9.12;100.00;100821.78;5098372;27;20040;-73
2023/12/28 03:34:29;;;;;;;14.15;4.30;;;;;;;9.03;100.00;100827.59;5091043;27;20188;-74
2023/12/28 03:36:55;;;;;;;8.35;4.00;;;;;;;9.13;100.00;100814.63;5097969;27;20059;-73
2023/12/28 03:39:20;;;;;;;9.70;4.43;;;;;;;9.13;100.00;100814.63;5101160;27;20067;-76
2023/12/28 03:41:47;;;;;;;15.38;4.07;;;;;;;9.12;100.00;100823.56;5098299;27;20039;-73
2023/12/28 03:44:12;;;;;;;11.63;4.05;;;;;;;9.10;100.00;100823.66;5084108;28;20036;-73
2023/12/28 03:46:38;;;;;;;12.30;4.25;;;;;;;9.18;100.00;100825.88;5101550;27;20048;-74
2023/12/28 03:49:04;;;;;;;14.20;4.13;;;;;;;9.15;100.00;100818.94;5094409;27;20135;-74
2023/12/28 03:51:29;;;;;;;8.05;3.75;;;;;;;9.30;100.00;100828.69;5095067;27;20040;-73
2023/12/28 03:53:55;;;;;;;7.90;4.65;;;;;;;9.45;100.00;100828.75;5096840;27;20035;-73
2023/12/28 03:56:25;;;;;;;9.75;4.32;;;;;;;9.59;100.00;100821.66;5096998;27;20036;-73
2023/12/28 03:58:53;;;;;;;7.93;4.15;;;;;;;9.69;100.00;100818.41;5092659;27;20836;-73
2023/12/28 04:01:22;;;;;;;8.18;3.55;;;;;;;9.69;100.00;100824.63;5096312;27;20070;-73
2023/12/28 04:03:49;;;;;;;10.10;4.13;;;;;;;9.68;100.00;100817.56;5086757;27;20498;-75
2023/12/28 04:06:15;;;;;;;9.70;3.35;;;;;;;9.73;100.00;100807.50;5106682;27;20038;-75
2023/12/28 04:08:42;;;;;;;14.57;3.95;;;;;;;9.73;100.00;100806.63;5084732;27;20028;-74
2023/12/28 04:11:08;;;;;;;7.53;3.70;;;;;;;9.81;100.00;100807.91;5096072;27;20036;-74
2023/12/28 04:13:35;;;;;;;7.28;3.63;;;;;;;9.68;100.00;100809.59;5087903;28;20111;-76
2023/12/28 04:16:00;;;;;;;7.65;3.65;;;;;;;9.73;100.00;100817.28;5076495;27;20071;-73
2023/12/28 04:18:26;;;;;;;8.23;3.22;;;;;;;9.64;100.00;100816.06;5098124;27;20575;-73
2023/12/28 04:20:52;;;;;;;14.25;4.32;;;;;;;9.60;100.00;100811.88;5100284;27;20087;-76
2023/12/28 04:23:17;;;;;;;9.10;3.03;;;;;;;9.57;100.00;100812.03;5097754;27;20105;-73
2023/12/28 04:25:43;;;;;;;5.82;3.17;;;;;;;9.53;100.00;100811.34;5088054;27;20036;-76
2023/12/28 04:28:08;;;;;;;8.35;3.67;;;;;;;9.55;100.00;100800.63;5094392;27;20036;-74
2023/12/28 04:30:34;;;;;;;15.82;3.78;;;;;;;9.58;100.00;100813.75;5092469;27;20482;-74
2023/12/28 04:33:01;;;;;;;9.10;3.63;;;;;;;9.63;100.00;100809.00;5097480;27;20047;-74
2023/12/28 04:35:26;;;;;;;14.75;4.13;;;;;;;9.54;100.00;100807.78;5099650;27;20036;-75
2023/12/28 04:37:52;;;;;;;9.77;3.08;;;;;;;9.60;100.00;100810.06;5097235;27;20043;-73
2023/12/28 04:40:17;;;;;;;13.23;3.53;;;;;;;9.68;100.00;100822.91;5080014;28;20043;-76
2023/12/28 04:42:43;;;;;;;12.20;3.70;;;;;;;9.65;100.00;100811.59;5091740;27;20087;-74
2023/12/28 04:45:12;;;;;;;12.98;4.13;;;;;;;9.82;100.00;100808.75;5084051;27;20506;-76
2023/12/28 04:47:38;;;;;;;13.82;3.38;;;;;;;9.81;100.00;100804.38;5086457;27;20032;-76
2023/12/28 04:50:04;;;;;;;12.15;3.70;;;;;;;9.72;100.00;100802.28;5089435;28;20093;-76
2023/12/28 04:52:30;;;;;;;13.20;3.45;;;;;;;9.73;100.00;100799.50;5091581;28;20039;-74
2023/12/28 04:54:56;;;;;;;17.67;3.67;;;;;;;9.68;100.00;100803.41;5077917;27;20612;-75
2023/12/28 04:57:24;;;;;;;11.50;3.58;;;;;;;9.66;100.00;100805.31;5070049;27;20024;-75
2023/12/28 04:59:49;;;;;;;22.75;4.38;;;;;;;9.58;100.00;100803.09;5097987;27;20044;-75
2023/12/28 05:02:15;;;;;;;18.90;3.78;;;;;;;9.64;100.00;100805.41;5097517;27;20032;-75
2023/12/28 05:04:41;;;;;;;14.85;4.20;;;;;;;9.70;100.00;100817.50;5092154;28;20032;-76
2023/12/28 05:07:06;;;;;;;7.60;3.15;;;;;;;9.68;100.00;100806.06;5079611;28;20036;-74
2023/12/28 05:09:32;;;;;;;14.25;3.10;;;;;;;9.77;100.00;100808.19;5097748;27;20039;-74
2023/12/28 05:11:57;;;;;;;12.07;3.35;;;;;;;9.76;100.00;100809.13;5099099;27;20044;-74
2023/12/28 05:14:23;;;;;;;10.30;3.22;;;;;;;9.84;100.00;100809.53;5084515;27;20040;-75
2023/12/28 05:16:49;;;;;;;21.27;3.33;;;;;;;9.89;100.00;100833.19;5080798;27;20028;-75
2023/12/28 05:19:15;;;;;;;15.73;3.47;;;;;;;9.95;100.00;100833.72;5105616;27;20195;-75
2023/12/28 05:21:40;;;;;;;18.63;4.28;;;;;;;10.00;100.00;100825.44;5102647;27;20591;-75
2023/12/28 05:24:06;;;;;;;19.70;4.50;;;;;;;10.12;100.00;100828.19;5099177;27;20036;-73
2023/12/28 05:26:32;;;;;;;8.00;2.92;;;;;;;10.14;100.00;100846.75;5107081;27;20035;-74
2023/12/28 05:28:57;;;;;;;14.00;3.55;;;;;;;10.15;100.00;100835.16;5101352;27;20344;-74
2023/12/28 05:31:23;;;;;;;14.50;3.55;;;;;;;10.12;100.00;100841.50;5107486;27;20032;-75
2023/12/28 05:33:48;;;;;;;16.48;4.22;;;;;;;9.96;100.00;100827.41;5106049;27;20848;-75
2023/12/28 05:36:14;;;;;;;19.45;3.95;;;;;;;10.14;100.00;100854.75;5100891;27;20190;-74
2023/12/28 05:38:39;;;;;;;16.35;3.97;;;;;;;10.12;100.00;100845.97;5096529;27;20492;-75
2023/12/28 05:41:05;;;;;;;16.60;3.65;;;;;;;10.24;100.00;100852.38;5098557;27;20112;-76
2023/12/28 05:43:31;;;;;;;18.45;2.97;;;;;;;10.17;100.00;100851.03;5095855;27;20097;-75
2023/12/28 05:45:56;;;;;;;19.63;3.85;;;;;;;10.27;100.00;100844.22;5108524;27;20397;-75
2023/12/28 05:48:22;;;;;;;23.85;5.60;;;;;;;10.35;100.00;100837.47;5111110;27;20477;-75
2023/12/28 05:50:47;;;;;;;10.88;3.00;;;;;;;10.34;100.00;100843.75;5096362;28;20428;-74
2023/12/28 05:53:14;;;;;;;19.73;3.67;;;;;;;10.36;100.00;100831.19;5104126;27;20052;-76
2023/12/28 05:55:43;;;;;;;25.17;3.58;;;;;;;10.36;100.00;100831.19;5107373;27;20575;-75
2023/12/28 05:58:11;;;;;;;18.60;3.83;;;;;;;10.36;100.00;100823.19;5105084;27;20039;-75
2023/12/28 06:00:38;;;;;;;16.13;3.80;;;;;;;10.41;100.00;100841.56;5099616;27;20032;-75
2023/12/28 06:03:04;;;;;;;14.02;3.13;;;;;;;10.37;100.00;100832.88;5100852;27;20036;-75
2023/12/28 06:05:30;;;;;;;19.55;3.97;;;;;;;10.49;100.00;100828.59;5094143;27;20032;-76
2023/12/28 06:07:56;;;;;;;19.17;4.53;;;;;;;10.49;100.00;100833.06;5094620;27;20032;-75
2023/12/28 06:10:21;;;;;;;12.18;2.90;;;;;;;10.47;100.00;100833.16;5099428;27;20032;-75
2023/12/28 06:12:47;;;;;;;14.07;3.47;;;;;;;10.43;100.00;100841.44;5099804;27;20037;-74
2023/12/28 06:15:13;;;;;;;14.93;3.88;;;;;;;10.48;100.00;100836.69;5072781;28;20498;-75
2023/12/28 06:17:39;;;;;;;17.80;4.25;;;;;;;10.42;100.00;100835.25;5100735;27;20042;-75
2023/12/28 06:20:05;;;;;;;18.98;3.97;;;;;;;10.45;100.00;100826.22;5107046;27;20047;-75
2023/12/28 06:22:30;;;;;;;11.20;3.47;;;;;;;10.53;100.00;100830.09;5087803;27;20027;-74
2023/12/28 06:24:56;;;;;;;17.70;4.38;;;;;;;10.50;100.00;100832.97;5079934;28;20033;-76
2023/12/28 06:27:23;;;;;;;13.80;3.40;;;;;;;10.49;100.00;100835.72;5092340;27;20024;-75
2023/12/28 06:29:49;;;;;;;18.33;3.60;;;;;;;10.51;100.00;100839.16;5101812;27;20035;-76
2023/12/28 06:32:15;;;;;;;15.00;2.88;;;;;;;10.50;100.00;100846.31;5101789;27;20035;-75
2023/12/28 06:34:40;;;;;;;21.77;3.67;;;;;;;10.52;100.00;100862.19;5089862;27;20032;-76
2023/12/28 06:37:06;;;;;;;14.30;3.50;;;;;;;10.56;100.00;100856.59;5081509;28;20040;-74
2023/12/28 06:39:31;;;;;;;24.13;4.47;;;;;;;10.48;100.00;100864.19;5082862;27;20493;-75
2023/12/28 06:41:57;;;;;;;14.05;3.85;;;;;;;10.48;100.00;100858.84;5070742;28;20032;-75
2023/12/28 06:44:22;;;;;;;20.13;3.58;;;;;;;10.54;100.00;100858.50;5089774;28;20242;-75
2023/12/28 06:46:48;;;;;;;22.05;5.32;;;;;;;10.57;100.00;100857.44;5087917;28;20062;-74
2023/12/28 06:49:13;;;;;;;23.00;4.25;;;;;;;10.50;100.00;100848.97;5100699;27;20058;-75
2023/12/28 06:51:39;;;;;;;16.38;3.97;;;;;;;10.57;100.00;100857.44;5088721;27;20040;-74
2023/12/28 06:54:05;;;;;;;17.02;3.72;;;;;;;10.50;100.00;100854.31;5100985;27;20057;-75
2023/12/28 06:56:30;;;;;;;17.50;3.92;;;;;;;10.53;100.00;100845.25;5104125;27;20125;-76
2023/12/28 06:58:56;;;;;;;22.80;4.72;;;;;;;10.51;100.00;100844.50;5098126;27;20686;-74
2023/12/28 07:01:21;;;;;;;16.42;4.55;;;;;;;10.56;100.00;100861.06;5092045;27;20490;-73
2023/12/28 07:03:46;;;;;;;24.05;3.78;;;;;;;10.49;100.00;100857.94;5088832;27;20107;-73
2023/12/28 07:06:14;;;;;;;20.65;4.00;;;;;;;10.50;100.00;100850.78;5095196;27;20020;-74
2023/12/28 07:08:39;;;;;;;21.30;3.75;;;;;;;10.56;100.00;100853.91;5080584;27;20035;-74
2023/12/28 07:11:05;;;;;;;16.92;4.53;;;;;;;10.56;100.00;100853.91;5096856;27;20496;-73
2023/12/28 07:13:30;;;;;;;24.38;4.15;;;;;;;10.65;100.00;100859.63;5101296;27;20481;-74
2023/12/28 07:15:56;;;;;;;18.85;3.63;;;;;;;10.59;100.00;100861.72;5069258;27;20040;-75
2023/12/28 07:18:21;;;;;;;20.38;4.22;;;;;;;10.60;100.00;100867.91;5085271;27;20677;-73
2023/12/28 07:20:47;;;;;;;27.55;5.75;;;;;;;10.56;100.00;100863.72;5095887;27;20036;-74
2023/12/28 07:23:13;;;;;;;31.15;4.95;;;;;;;10.58;100.00;100865.31;5090150;27;20501;-73
2023/12/28 07:25:38;;;;;;;23.55;4.82;;;;;;;10.55;100.00;100875.34;5074683;28;20051;-74
2023/12/28 07:28:04;;;;;;;14.10;3.53;;;;;;;10.61;100.00;100883.81;5072309;28;20032;-75
2023/12/28 07:30:30;;;;;;;18.50;4.85;;;;;;;10.56;100.00;100875.25;5089485;28;20109;-73
2023/12/28 07:32:55;;;;;;;27.05;5.20;;;;;;;10.55;100.00;100868.19;5089452;27;20444;-75
2023/12/28 07:35:21;;;;;;;24.02;5.32;;;;;;;10.63;100.00;100871.22;5089460;27;20503;-73
2023/12/28 07:37:46;;;;;;;21.42;4.80;;;;;;;10.59;100.00;100871.50;5092937;27;20048;-75
2023/12/28 07:40:13;;;;;;;25.27;4.72;;;;;;;10.57;100.00;100879.63;5063875;28;20055;-74
2023/12/28 07:42:38;;;;;;;24.52;4.97;;;;;;;10.62;100.00;100877.53;5092604;27;21151;-75
2023/12/28 07:45:04;;;;;;;26.60;4.32;;;;;;;10.60;100.00;100879.44;5093325;27;20028;-73
2023/12/28 07:47:29;;;;;;;19.95;4.25;;;;;;;10.52;100.00;100884.38;5096999;27;20548;-73
2023/12/28 07:49:55;;;;;;;24.92;4.72;;;;;;;10.53;100.00;100891.41;5091215;27;20884;-73
2023/12/28 07:52:21;;;;;;;18.38;3.80;;;;;;;10.60;100.00;100899.91;5069477;28;20109;-74
2023/12/28 07:54:47;;;;;;;24.88;4.30;;;;;;;10.61;100.00;100901.63;5088664;28;20750;-73
2023/12/28 07:57:12;;;;;;;21.67;4.43;;;;;;;10.65;100.00;100907.63;5089116;28;20039;-74
2023/12/28 07:59:38;;;;;;;20.63;4.43;;;;;;;10.55;100.00;100905.53;5098088;27;20047;-75
2023/12/28 08:02:03;;;;;;;25.90;4.72;;;;;;;10.59;100.00;100903.50;5100136;27;20085;-73
2023/12/28 08:04:29;;;;;;;23.80;5.43;;;;;;;10.67;100.00;100911.91;5070759;28;20926;-74
2023/12/28 08:06:54;;;;;;;21.73;4.50;;;;;;;10.59;100.00;100912.41;5053341;27;20040;-74
2023/12/28 08:09:20;;;;;;;15.43;4.88;;;;;;;10.57;100.00;100916.09;5092242;27;20129;-74
2023/12/28 08:11:45;;;;;;;24.02;5.25;;;;;;;10.66;100.00;100910.19;5088315;28;20040;-74
2023/12/28 08:14:11;;;;;;;28.90;4.95;;;;;;;10.66;100.00;100925.34;5091810;27;20031;-74
2023/12/28 08:16:36;;;;;;;16.75;3.88;;;;;;;10.74;100.00;100928.38;5092123;27;20028;-74
2023/12/28 08:19:02;;;;;;;20.33;5.03;;;;;;;10.68;100.00;100934.94;5066569;27;20893;-73
2023/12/28 08:21:27;;;;;;;27.48;4.70;;;;;;;10.79;100.00;100921.81;5092669;27;20045;-74
2023/12/28 08:23:53;;;;;;;22.05;4.32;;;;;;;10.77;100.00;100929.03;5056271;27;20047;-74
2023/12/28 08:26:19;;;;;;;28.23;5.55;;;;;;;10.81;100.00;100930.56;5082061;27;20146;-73
2023/12/28 08:28:45;;;;;;;17.55;3.78;;;;;;;10.78;100.00;100933.41;5066836;27;20033;-73
2023/12/28 08:31:12;;;;;;;29.42;5.53;;;;;;;10.79;100.00;100936.94;5089306;27;20034;-74
2023/12/28 08:33:39;;;;;;;21.40;4.28;;;;;;;10.93;100.00;100942.25;5071700;28;20032;-74
2023/12/28 08:36:06;;;;;;;18.02;4.10;;;;;;;10.88;100.00;100936.34;5087762;27;20040;-73
2023/12/28 08:38:32;;;;;;;25.52;5.50;;;;;;;10.99;100.00;100930.34;5081675;28;20051;-72
2023/12/28 08:40:57;;;;;;;23.20;4.82;;;;;;;11.00;100.00;100929.41;5095393;27;20126;-74
2023/12/28 08:43:23;;;;;;;17.58;3.63;;;;;;;11.01;100.00;100921.28;5089803;27;20027;-74
2023/12/28 08:45:48;;;;;;;25.30;4.57;;;;;;;10.92;100.00;100926.38;5084756;27;20037;-74
2023/12/28 08:48:14;;;;;;;25.58;5.32;;;;;;;10.96;100.00;100918.06;5086789;27;20036;-75
2023/12/28 08:50:39;;;;;;;31.88;5.15;;;;;;;10.66;100.00;100910.19;5087214;27;20040;-74
2023/12/28 08:53:05;;;;;;;27.02;4.25;;;;;;;10.82;100.00;100926.09;5086915;27;20052;-72
2023/12/28 08:55:30;;;;;;;24.27;5.45;;;;;;;10.97;100.00;100925.13;5096379;27;20039;-74
2023/12/28 08:57:56;;;;;;;17.63;4.53;;;;;;;11.10;100.00;100925.19;5085119;27;20032;-74
2023/12/28 09:00:21;;;;;;;23.70;5.07;;;;;;;11.13;100.00;100938.31;5060344;28;20037;-74
2023/12/28 09:02:47;;;;;;;24.20;4.57;;;;;;;11.22;100.00;100937.75;5091331;27;20428;-74
2023/12/28 09:05:12;;;;;;;23.50;4.28;;;;;;;11.19;100.00;100937.06;5091982;27;20236;-73
2023/12/28 09:07:42;;;;;;;19.48;4.22;;;;;;;11.15;100.00;100941.78;5099678;27;20039;-74
2023/12/28 09:10:11;;;;;;;17.70;4.65;;;;;;;11.18;100.00;100962.06;5102969;27;20036;-74
2023/12/28 09:12:36;;;;;;;19.52;4.85;;;;;;;11.10;100.00;100971.41;5099386;27;20032;-73
2023/12/28 09:15:07;;;;;;;27.05;4.72;;;;;;;11.07;100.00;100968.94;5090173;27;20497;-73
2023/12/28 09:17:33;;;;;;;27.02;5.03;;;;;;;11.00;100.00;100977.44;5087746;27;20075;-73
2023/12/28 09:19:58;;;;;;;27.02;4.93;;;;;;;11.05;100.00;100972.66;5077503;28;20032;-74
2023/12/28 09:22:24;;;;;;;26.20;4.75;;;;;;;11.10;100.00;100970.56;5086008;27;20093;-73
2023/12/28 09:24:50;;;;;;;27.38;4.97;;;;;;;11.11;100.00;100985.63;5097837;27;20968;-74
2023/12/28 09:27:15;;;;;;;18.50;4.00;;;;;;;11.08;100.00;100983.97;5087028;27;20458;-75
2023/12/28 09:29:41;;;;;;;16.58;3.80;;;;;;;11.16;100.00;100975.50;5068235;27;20214;-74
2023/12/28 09:32:06;;;;;;;33.03;5.20;;;;;;;11.14;100.00;100978.28;5087551;27;20024;-74
2023/12/28 09:34:32;;;;;;;29.80;6.38;;;;;;;11.30;100.00;100979.97;5089292;27;20988;-73
2023/12/28 09:36:58;;;;;;;23.90;4.13;;;;;;;11.20;100.00;100981.53;5073474;27;20989;-74
2023/12/28 09:39:24;;;;;;;23.88;4.90;;;;;;;11.32;100.00;100973.56;5091995;27;20040;-74
2023/12/28 09:41:59;;;;;;;24.45;4.40;;;;;;;11.37;100.00;100971.44;5087919;27;20028;-74
2023/12/28 09:44:26;;;;;;;28.45;4.75;;;;;;;11.45;100.00;100978.13;5091289;27;20043;-74
2023/12/28 09:46:53;;;;;;;26.60;5.18;;;;;;;11.41;100.00;100980.13;5091575;27;20123;-74
2023/12/28 09:49:21;;;;;;;21.48;4.18;;;;;;;11.33;100.00;100977.94;5078218;27;20131;-74
2023/12/28 09:51:47;;;;;;;16.33;3.95;;;;;;;11.44;100.00;100974.56;5084238;27;20031;-73
2023/12/28 09:54:13;;;;;;;25.63;5.65;;;;;;;11.44;100.00;100971.91;5093665;27;20036;-74
2023/12/28 09:56:40;;;;;;;27.38;5.72;;;;;;;11.46;100.00;100978.03;5099030;27;20042;-74
2023/12/28 09:59:06;;;;;;;25.95;5.32;;;;;;;11.54;100.00;100982.84;5089042;27;20044;-74
2023/12/28 10:01:34;;;;;;;25.45;4.75;;;;;;;11.44;100.00;100974.56;5078629;28;20035;-73
2023/12/28 10:03:59;;;;;;;18.10;4.65;;;;;;;11.48;100.00;100972.56;5089156;27;20029;-74
2023/12/28 10:06:25;;;;;;;26.40;5.35;;;;;;;11.63;100.00;100979.56;5101038;27;20477;-74
2023/12/28 10:08:50;;;;;;;23.98;5.38;;;;;;;11.77;100.00;100982.19;5091258;27;20032;-72
2023/12/28 10:11:17;;;;;;;23.48;4.70;;;;;;;11.77;100.00;100968.84;5099138;27;20032;-74
2023/12/28 10:13:46;;;;;;;24.75;4.55;;;;;;;11.77;100.00;100986.69;5098500;27;20035;-73
2023/12/28 10:16:12;;;;;;;24.33;4.07;;;;;;;11.77;100.00;100986.69;5095354;27;20055;-73
2023/12/28 10:18:44;;;;;;;25.35;4.35;;;;;;;11.74;100.00;100962.84;5103669;27;20044;-73
2023/12/28 10:21:11;;;;;;;29.83;4.07;;;;;;;11.75;100.00;100977.94;5099272;27;20039;-73
2023/12/28 10:23:36;;;;;;;22.33;4.60;;;;;;;11.90;100.00;100971.59;5088253;27;20028;-73
2023/12/28 10:26:04;;;;;;;29.80;5.00;;;;;;;11.83;100.00;100968.47;5101011;27;20033;-73
2023/12/28 10:28:34;;;;;;;24.67;4.40;;;;;;;11.82;100.00;100955.22;5105688;27;20039;-73
2023/12/28 10:31:01;;;;;;;34.08;4.70;;;;;;;11.88;100.00;100961.00;5096714;27;20032;-74
2023/12/28 10:33:26;;;;;;;18.95;4.30;;;;;;;11.89;100.00;100960.03;5096440;27;20119;-73
2023/12/28 10:35:52;;;;;;;31.30;4.57;;;;;;;11.80;100.00;100967.81;5105346;27;20052;-74
2023/12/28 10:38:19;;;;;;;20.58;4.53;;;;;;;11.80;100.00;100957.97;5087178;27;20035;-74
2023/12/28 10:40:45;;;;;;;25.60;4.10;;;;;;;11.82;100.00;100963.22;5108943;27;20678;-74
2023/12/28 10:43:15;;;;;;;22.63;4.07;;;;;;;11.64;100.00;100950.09;5090347;28;20079;-74
2023/12/28 10:45:46;;;;;;;29.38;4.85;;;;;;;11.75;100.00;100962.75;5114483;27;20036;-73
2023/12/28 10:48:13;;;;;;;30.33;4.22;;;;;;;11.83;100.00;100959.59;5105458;27;20051;-72
2023/12/28 10:50:46;;;;;;;21.15;4.07;;;;;;;11.85;100.00;100965.72;5106893;27;20039;-75
2023/12/28 10:53:36;;;;;;;19.40;4.05;;;;;;;11.76;100.00;100968.97;5107008;27;20384;-74
2023/12/28 10:56:27;;;;;;;23.73;4.65;;;;;;;11.76;100.00;100967.13;5092229;27;20362;-73
2023/12/28 10:59:20;;;;;;;22.40;4.97;;;;;;;11.62;100.00;100960.03;5108258;27;20059;-74
2023/12/28 11:01:49;;;;;;;17.80;3.92;;;;;;;11.61;100.00;100962.81;5101062;27;20050;-73
2023/12/28 11:04:31;;;;;;;24.83;5.13;;;;;;;11.60;100.00;100969.97;5085049;28;21146;-72
2023/12/28 11:06:59;;;;;;;22.97;4.20;;;;;;;11.64;100.00;100983.97;5102862;27;20039;-75
2023/12/28 11:09:26;;;;;;;20.17;4.85;;;;;;;11.79;100.00;100974.94;5108319;27;20554;-73
2023/12/28 11:11:54;;;;;;;21.63;5.13;;;;;;;11.64;100.00;100973.28;5096897;27;20803;-73